Stewart, Texas
Current Conditions -  °F | °C
As of 10:15 AM on Monday 24 Nov 2014 (Local Time) from KRFI Reporting Station
Clear Clear  
Wind Chill: 13°   Ceiling: Unl
Heat Index: 13°   Visibility: 10mi
Dew Point:   Wind: 9mph
Humidity: 45%   Direction: 310°NW
Pressure: 30.06"   Gusts: NA
Location:  32.1449°N, 94.7416°W
Report Text: KRFI 241615Z AUTO 31008KT 280V340 10SM CLR 13/01 A3006 RMK AO2 T01290012
Loading
Personal Weather Stations






























Interactive Weather Map New forecast layout! Learn more

10-Day Weather Forecast

Advertisements
Track Severe Weather on mobile